Time;durP1;ratioP1;P1;durP2;ratioP2;P2;SDS_P1;SDS_P2;PMS_P1;PMS_P2;Temp;Humidity;BMP_temperature;BMP_pressure;BME280_temperature;BME280_humidity;BME280_pressure;Samples;Min_cycle;Max_cycle;Signal;HPM_P1;HPM_P2
2022/09/08 00:02:14;;;;;;;;;2.00;2.00;;;;;18.38;66.05;100631.63;5021442;28;45971;-82
2022/09/08 00:04:40;;;;;;;;;1.00;1.00;;;;;18.39;66.10;100630.69;5002553;28;45382;-82
2022/09/08 00:07:07;;;;;;;;;1.00;1.00;;;;;18.38;66.33;100639.63;5001652;28;45348;-82
2022/09/08 00:09:33;;;;;;;;;1.00;1.00;;;;;18.30;66.61;100638.09;4999950;28;45537;-81
2022/09/08 00:12:01;;;;;;;;;2.67;1.67;;;;;18.35;66.41;100642.41;4998724;28;47265;-82
2022/09/08 00:14:27;;;;;;;;;0.00;0.00;;;;;18.29;66.61;100622.19;4998963;28;45340;-82
2022/09/08 00:16:53;;;;;;;;;2.67;2.00;;;;;18.32;66.39;100635.41;5002255;28;45392;-81
2022/09/08 00:19:19;;;;;;;;;2.00;2.00;;;;;18.34;66.34;100641.53;5003816;28;45205;-82
2022/09/08 00:21:44;;;;;;;;;1.00;1.00;;;;;18.27;66.53;100627.56;5014320;28;47356;-82
2022/09/08 00:24:10;;;;;;;;;3.00;3.00;;;;;18.25;66.55;100626.75;5022653;28;45289;-82
2022/09/08 00:26:35;;;;;;;;;2.67;1.67;;;;;18.30;66.53;100630.09;5011132;28;45315;-81
2022/09/08 00:29:00;;;;;;;;;2.00;1.67;;;;;18.27;66.41;100626.69;5002643;28;45478;-82
2022/09/08 00:31:26;;;;;;;;;3.33;2.67;;;;;18.30;66.48;100629.25;5003770;28;46212;-82
2022/09/08 00:33:51;;;;;;;;;1.00;1.00;;;;;18.28;66.93;100625.75;5008507;28;45263;-82
2022/09/08 00:36:17;;;;;;;;;1.67;1.67;;;;;18.34;66.71;100628.22;5024495;28;45228;-82
2022/09/08 00:38:50;;;;;;;;;1.00;1.00;;;;;18.34;66.51;100627.34;5010815;28;45241;-82
2022/09/08 00:41:16;;;;;;;;;2.67;2.00;;;;;18.40;66.33;100630.63;5011598;28;46263;-81
2022/09/08 00:43:45;;;;;;;;;2.00;1.00;;;;;18.43;66.26;100635.00;5003744;28;46005;-81
2022/09/08 00:46:14;;;;;;;;;4.33;2.00;;;;;18.51;66.68;100640.91;5004800;28;45345;-82
2022/09/08 00:48:56;;;;;;;;;1.67;1.67;;;;;18.44;66.34;100623.38;5009314;28;45411;-82
2022/09/08 00:51:25;;;;;;;;;2.00;2.00;;;;;18.50;66.23;100632.03;5020647;28;47619;-82
2022/09/08 00:53:50;;;;;;;;;2.67;2.00;;;;;18.45;66.51;100631.34;5006565;28;45564;-81
2022/09/08 00:56:17;;;;;;;;;2.00;1.00;;;;;18.48;66.37;100639.22;5023508;28;45474;-82
2022/09/08 00:58:43;;;;;;;;;1.00;1.00;;;;;18.53;66.20;100636.38;5024258;28;45624;-82
2022/09/08 01:01:09;;;;;;;;;2.67;0.33;;;;;18.54;66.18;100635.44;5020303;28;46652;-82
2022/09/08 01:03:39;;;;;;;;;1.67;1.00;;;;;18.60;66.38;100637.00;5001899;28;45293;-82
2022/09/08 01:06:18;;;;;;;;;3.00;3.00;;;;;18.58;65.77;100634.41;5005929;28;45284;-81
2022/09/08 01:14:44;;;;;;;;;2.33;1.00;;;;;18.60;66.16;100635.19;5010403;28;45441;-82
2022/09/08 01:17:18;;;;;;;;;3.00;2.00;;;;;18.62;65.98;100643.16;5020296;28;45353;-81
2022/09/08 01:19:47;;;;;;;;;1.33;1.00;;;;;18.60;65.99;100637.00;5002690;28;45387;-81
2022/09/08 01:22:20;;;;;;;;;2.00;2.00;;;;;18.67;66.21;100649.19;5001627;28;47250;-81
2022/09/08 01:24:56;;;;;;;;;1.00;1.00;;;;;18.68;65.93;100650.91;5001270;28;45679;-81
2022/09/08 01:27:27;;;;;;;;;2.00;2.00;;;;;18.68;66.00;100648.22;5001064;28;45531;-81
2022/09/08 01:29:59;;;;;;;;;2.00;1.00;;;;;18.72;65.45;100657.88;5001629;28;45578;-82
2022/09/08 01:32:32;;;;;;;;;2.33;2.00;;;;;18.73;65.41;100649.78;5001864;28;48178;-81
2022/09/08 01:34:57;;;;;;;;;3.00;2.00;;;;;18.71;65.71;100642.78;5002535;28;45417;-81
2022/09/08 01:37:23;;;;;;;;;1.00;1.00;;;;;18.65;65.49;100645.69;5003236;28;44707;-81
2022/09/08 01:39:49;;;;;;;;;2.00;1.00;;;;;18.67;65.67;100647.38;5002360;28;45392;-82
2022/09/08 01:42:14;;;;;;;;;1.00;1.00;;;;;18.59;65.72;100646.81;5010178;28;47169;-81
2022/09/08 01:44:43;;;;;;;;;1.00;1.00;;;;;18.59;65.80;100660.13;5023729;28;45210;-82
2022/09/08 01:47:09;;;;;;;;;0.67;0.67;;;;;18.57;65.85;100666.44;5021412;28;45312;-82
2022/09/08 01:49:34;;;;;;;;;2.00;0.67;;;;;18.58;66.01;100670.84;5021426;28;45538;-81
2022/09/08 01:52:00;;;;;;;;;1.00;1.00;;;;;18.57;65.96;100672.66;5021665;28;47534;-82
2022/09/08 01:54:27;;;;;;;;;1.33;0.33;;;;;18.55;65.64;100666.53;5021413;28;45396;-82
2022/09/08 01:56:53;;;;;;;;;1.00;1.00;;;;;18.58;65.87;100676.16;5021914;28;45466;-81
2022/09/08 01:59:19;;;;;;;;;2.67;1.00;;;;;18.54;65.81;100672.75;5023011;28;45456;-82
2022/09/08 02:01:44;;;;;;;;;1.00;1.00;;;;;18.51;65.83;100668.41;5022278;28;45652;-82
2022/09/08 02:04:10;;;;;;;;;2.67;2.00;;;;;18.58;65.94;100692.16;5022254;28;45220;-81
2022/09/08 02:06:35;;;;;;;;;2.00;2.00;;;;;18.55;65.52;100674.53;5020982;28;45551;-82
2022/09/08 02:09:01;;;;;;;;;1.00;1.00;;;;;18.50;66.09;100668.50;5021261;28;45241;-82
2022/09/08 02:11:26;;;;;;;;;1.33;1.33;;;;;18.49;66.20;100664.94;5014071;28;48100;-82
2022/09/08 02:13:52;;;;;;;;;1.00;1.00;;;;;18.50;65.71;100666.69;5003019;28;45187;-81
2022/09/08 02:16:20;;;;;;;;;3.00;3.00;;;;;18.52;65.89;100664.84;5005601;28;45232;-81
2022/09/08 02:18:46;;;;;;;;;0.33;0.33;;;;;18.51;65.49;100665.75;5005719;28;45399;-84
2022/09/08 02:21:13;;;;;;;;;3.00;2.00;;;;;18.52;65.80;100667.50;5001270;28;47498;-82
2022/09/08 02:23:42;;;;;;;;;1.33;1.33;;;;;18.39;65.70;100649.34;5000851;28;45233;-82
2022/09/08 02:26:16;;;;;;;;;1.67;1.00;;;;;18.32;65.88;100651.38;5001251;28;45653;-82
2022/09/08 02:28:42;;;;;;;;;4.00;2.67;;;;;18.28;65.91;100655.97;5002175;28;45257;-82
2022/09/08 02:31:07;;;;;;;;;2.00;1.00;;;;;18.25;66.08;100647.19;5009678;28;46996;-83
2022/09/08 02:33:33;;;;;;;;;1.00;1.00;;;;;18.23;66.24;100641.94;5018197;28;45316;-82
2022/09/08 02:35:59;;;;;;;;;0.33;0.33;;;;;18.25;66.16;100661.38;5002440;28;45461;-82
2022/09/08 02:38:25;;;;;;;;;1.00;1.00;;;;;18.18;66.34;100646.56;4999859;28;45480;-82
2022/09/08 02:40:51;;;;;;;;;2.00;2.00;;;;;18.15;66.17;100644.03;4999976;28;46125;-82
2022/09/08 02:43:17;;;;;;;;;1.00;1.00;;;;;18.09;66.65;100638.91;5000397;28;45352;-82
2022/09/08 02:45:43;;;;;;;;;1.00;1.00;;;;;18.09;66.53;100636.22;5000796;28;45454;-82
2022/09/08 02:48:09;;;;;;;;;1.00;1.00;;;;;18.11;67.14;100638.84;5016332;28;45370;-82
2022/09/08 02:50:35;;;;;;;;;3.00;1.00;;;;;18.04;66.80;100630.19;5011364;28;47943;-82
2022/09/08 02:53:00;;;;;;;;;1.00;1.00;;;;;17.99;66.81;100629.50;5001923;28;45499;-82
2022/09/08 02:55:26;;;;;;;;;3.67;1.00;;;;;17.97;67.12;100637.56;5017073;28;45236;-82
2022/09/08 02:57:52;;;;;;;;;2.00;1.33;;;;;17.97;67.05;100634.03;5021763;28;45424;-81
2022/09/08 03:00:19;;;;;;;;;1.00;1.00;;;;;17.95;67.42;100638.53;5019963;28;46120;-81
2022/09/08 03:02:46;;;;;;;;;3.00;2.00;;;;;17.94;67.34;100634.16;5020269;28;45382;-82
2022/09/08 03:05:11;;;;;;;;;1.33;1.33;;;;;17.87;67.35;100629.97;5021772;28;45285;-81
2022/09/08 03:07:37;;;;;;;;;1.00;1.00;;;;;17.90;67.44;100638.69;5020552;28;45769;-83
2022/09/08 03:10:04;;;;;;;;;1.67;1.67;;;;;17.84;67.58;100623.81;5020156;28;47031;-82
2022/09/08 03:12:30;;;;;;;;;2.67;1.67;;;;;17.83;67.70;100614.09;5021389;28;45260;-82
2022/09/08 03:14:56;;;;;;;;;3.00;3.00;;;;;17.82;67.48;100611.47;5020141;28;45356;-82
2022/09/08 03:17:21;;;;;;;;;2.33;2.00;;;;;17.78;67.73;100615.16;5019882;28;45603;-82
2022/09/08 03:19:47;;;;;;;;;0.67;0.67;;;;;17.77;67.86;100606.25;5021247;28;45231;-81
2022/09/08 03:22:17;;;;;;;;;1.00;1.00;;;;;17.76;67.55;100607.19;5020260;28;45416;-82
2022/09/08 03:24:42;;;;;;;;;1.00;1.00;;;;;17.78;67.95;100618.69;5021843;28;45455;-82
2022/09/08 03:27:08;;;;;;;;;2.00;1.00;;;;;17.74;67.75;100609.03;5019735;28;45521;-81
2022/09/08 03:29:34;;;;;;;;;0.67;0.67;;;;;17.70;67.91;100604.75;5021401;28;45270;-82
2022/09/08 03:31:59;;;;;;;;;1.00;1.00;;;;;17.75;67.96;100615.22;5021207;28;45310;-82
2022/09/08 03:34:26;;;;;;;;;2.33;1.00;;;;;17.70;67.82;100598.56;5021146;28;45309;-81
2022/09/08 03:36:51;;;;;;;;;1.00;0.00;;;;;17.70;68.09;100606.56;5019773;28;45197;-82
2022/09/08 03:39:17;;;;;;;;;3.33;3.33;;;;;17.68;68.12;100603.09;5020097;28;47203;-81
2022/09/08 03:41:42;;;;;;;;;2.00;2.00;;;;;17.67;67.98;100609.31;5021407;28;45165;-82
2022/09/08 03:44:09;;;;;;;;;1.00;1.00;;;;;17.62;68.11;100602.38;5020407;28;45346;-83
2022/09/08 03:46:34;;;;;;;;;4.33;3.00;;;;;17.61;68.11;100605.97;5020140;28;45374;-81
2022/09/08 03:49:00;;;;;;;;;3.33;3.00;;;;;17.65;68.39;100612.03;5021529;28;46235;-82
2022/09/08 03:51:26;;;;;;;;;2.00;2.00;;;;;17.65;68.54;100620.03;5022219;28;45402;-82
2022/09/08 03:53:53;;;;;;;;;2.00;2.00;;;;;17.62;68.19;100617.47;5013631;28;45481;-82
2022/09/08 03:56:20;;;;;;;;;1.00;1.00;;;;;17.61;68.47;100615.72;5019454;28;45452;-81
2022/09/08 03:58:45;;;;;;;;;3.00;2.00;;;;;17.63;68.42;100614.75;5020644;28;46371;-82
2022/09/08 04:01:16;;;;;;;;;3.00;2.33;;;;;17.58;68.40;100598.06;5018932;28;45311;-82
2022/09/08 04:03:41;;;;;;;;;2.00;2.00;;;;;17.63;68.39;100614.75;5019067;28;45434;-82
2022/09/08 04:06:07;;;;;;;;;1.00;1.00;;;;;17.64;68.42;100621.81;5020888;28;45364;-81
2022/09/08 04:08:33;;;;;;;;;2.67;2.00;;;;;17.66;68.58;100613.78;5019152;28;47093;-82
2022/09/08 04:10:59;;;;;;;;;3.33;2.00;;;;;17.70;68.55;100619.88;5020748;28;45331;-82
2022/09/08 04:13:25;;;;;;;;;2.00;2.00;;;;;17.70;68.40;100612.75;5020895;28;45238;-82
2022/09/08 04:15:51;;;;;;;;;2.00;2.00;;;;;17.68;68.57;100603.09;5020320;28;45482;-82
2022/09/08 04:18:16;;;;;;;;;4.00;2.00;;;;;17.70;68.63;100602.09;5021305;28;46540;-82
2022/09/08 04:20:41;;;;;;;;;3.75;3.00;;;;;17.79;68.75;100604.47;5019845;28;45236;-81
2022/09/08 04:23:09;;;;;;;;;3.67;2.67;;;;;17.79;68.30;100607.13;5021204;28;45652;-82
2022/09/08 04:25:35;;;;;;;;;1.67;1.67;;;;;17.77;68.62;100600.06;5021304;28;45261;-81
2022/09/08 04:28:01;;;;;;;;;3.00;2.00;;;;;17.78;68.44;100607.16;5020652;28;47118;-81
2022/09/08 04:30:26;;;;;;;;;5.00;4.00;;;;;17.80;68.62;100602.66;5020095;28;45426;-82
2022/09/08 04:32:54;;;;;;;;;4.00;4.00;;;;;17.72;68.65;100594.03;5021109;28;45450;-81
2022/09/08 04:35:20;;;;;;;;;3.00;2.00;;;;;17.66;68.41;100591.59;5017499;28;45578;-82
2022/09/08 04:37:46;;;;;;;;;3.67;3.00;;;;;17.68;68.60;100600.41;4998644;28;46673;-82
2022/09/08 04:40:11;;;;;;;;;3.67;3.00;;;;;17.64;68.97;100597.88;5003876;28;45261;-81
2022/09/08 04:42:37;;;;;;;;;3.33;2.00;;;;;17.64;69.05;100605.84;5019659;28;45232;-82
2022/09/08 04:45:03;;;;;;;;;2.00;2.00;;;;;17.66;68.81;100603.13;5002519;28;45479;-81
2022/09/08 04:47:29;;;;;;;;;2.67;2.67;;;;;17.66;68.72;100600.47;4999058;28;45376;-82
2022/09/08 04:50:07;;;;;;;;;;;;;;;;;;;;;
2022/09/08 04:52:33;;;;;;;;;2.00;2.00;;;;;17.69;68.81;100596.81;4999829;28;68845;-81
2022/09/08 04:54:59;;;;;;;;;4.67;3.67;;;;;17.78;68.80;100591.19;5017146;28;45443;-82
2022/09/08 04:57:25;;;;;;;;;2.00;2.00;;;;;17.79;68.48;100596.47;5020265;28;45221;-82
2022/09/08 04:59:50;;;;;;;;;4.00;2.00;;;;;17.78;68.50;100589.38;5018746;28;45260;-81
2022/09/08 05:02:15;;;;;;;;;4.00;3.00;;;;;17.78;68.81;100597.38;5018644;28;45525;-82
2022/09/08 05:04:41;;;;;;;;;4.00;4.00;;;;;17.87;68.95;100609.50;5022129;28;45231;-82
2022/09/08 05:07:06;;;;;;;;;3.33;3.33;;;;;17.85;68.34;100600.69;5020950;28;46495;-82
2022/09/08 05:09:32;;;;;;;;;2.00;2.00;;;;;17.87;68.67;100600.66;5020958;28;45252;-82
2022/09/08 05:11:57;;;;;;;;;4.33;4.00;;;;;17.88;68.30;100597.06;5022357;28;45246;-82
2022/09/08 05:14:23;;;;;;;;;4.67;4.67;;;;;17.89;68.21;100591.69;5022362;28;45315;-82
2022/09/08 05:16:48;;;;;;;;;5.00;3.50;;;;;17.95;68.22;100601.25;5022016;28;45350;-82
2022/09/08 05:19:13;;;;;;;;;5.25;4.00;;;;;17.99;68.68;100606.41;5022192;28;46312;-82
2022/09/08 05:21:39;;;;;;;;;4.50;3.50;;;;;18.02;68.19;100600.97;5022196;28;45932;-82
2022/09/08 05:24:05;;;;;;;;;5.25;5.00;;;;;18.02;68.30;100608.97;5020675;28;45349;-82
2022/09/08 05:26:31;;;;;;;;;4.33;3.00;;;;;17.99;68.08;100601.09;5020778;28;47354;-82
2022/09/08 05:28:57;;;;;;;;;2.50;2.50;;;;;17.97;67.94;100596.75;5021816;28;45395;-82
2022/09/08 05:31:25;;;;;;;;;3.00;2.00;;;;;17.97;68.15;100604.72;5020551;28;45409;-82
2022/09/08 05:33:52;;;;;;;;;3.00;3.00;;;;;17.93;67.51;100601.28;5020183;28;45462;-82
2022/09/08 05:36:21;;;;;;;;;2.50;2.00;;;;;17.91;67.71;100610.25;5021895;28;46192;-82
2022/09/08 05:38:47;;;;;;;;;2.00;2.00;;;;;17.89;67.78;100602.34;5020361;28;45402;-82
2022/09/08 05:41:14;;;;;;;;;2.00;2.00;;;;;17.93;68.20;100611.94;5020723;28;45458;-83
2022/09/08 05:43:40;;;;;;;;;3.67;3.67;;;;;17.94;67.77;100612.84;5021986;28;45603;-82
2022/09/08 05:46:05;;;;;;;;;3.25;2.00;;;;;17.90;68.02;100609.41;5020488;28;46879;-82
2022/09/08 05:48:31;;;;;;;;;3.00;3.00;;;;;17.91;67.63;100611.16;5021423;28;45274;-82
2022/09/08 05:50:57;;;;;;;;;3.00;3.00;;;;;17.94;68.05;100619.03;5022176;28;45300;-82
2022/09/08 05:53:23;;;;;;;;;6.33;3.67;;;;;17.90;67.88;100611.19;5020349;28;45548;-82
2022/09/08 05:56:01;;;;;;;;;6.00;3.00;;;;;17.94;68.25;100615.50;5021381;28;45670;-82
2022/09/08 05:58:28;;;;;;;;;5.00;3.00;;;;;17.94;67.68;100619.03;5021588;28;45406;-82
2022/09/08 06:00:59;;;;;;;;;3.67;2.67;;;;;17.92;68.45;100604.88;5007739;28;45252;-82
2022/09/08 06:03:26;;;;;;;;;2.00;1.33;;;;;17.93;68.42;100601.28;5000492;28;45473;-82
2022/09/08 06:05:52;;;;;;;;;3.00;3.00;;;;;18.05;67.83;100621.31;5000252;28;46223;-82
2022/09/08 06:08:20;;;;;;;;;4.00;4.00;;;;;18.07;68.02;100628.31;5000114;28;45350;-82
2022/09/08 06:10:50;;;;;;;;;3.33;1.00;;;;;18.14;67.88;100626.28;5000573;28;45383;-82
2022/09/08 06:13:16;;;;;;;;;3.00;3.00;;;;;18.19;67.65;100626.97;5000266;28;45519;-82
2022/09/08 06:15:41;;;;;;;;;2.00;1.67;;;;;18.18;67.40;100617.25;5000178;28;47138;-82
2022/09/08 06:18:07;;;;;;;;;4.00;3.00;;;;;18.20;67.64;100620.75;5000170;28;45798;-82
2022/09/08 06:20:32;;;;;;;;;3.00;1.67;;;;;18.25;67.55;100621.41;5001646;28;45566;-82
2022/09/08 06:22:58;;;;;;;;;3.33;2.67;;;;;18.34;67.40;100624.69;5001835;28;45431;-82
2022/09/08 06:25:23;;;;;;;;;3.00;3.00;;;;;18.36;67.07;100614.81;5001474;28;45430;-82
2022/09/08 06:28:00;;;;;;;;;3.00;3.00;;;;;18.42;66.88;100611.94;5001715;28;45325;-82
2022/09/08 06:30:25;;;;;;;;;3.00;2.33;;;;;18.45;66.97;100601.16;5001445;28;45516;-82
2022/09/08 06:32:57;;;;;;;;;4.67;4.67;;;;;18.54;66.72;100624.78;5000059;28;45600;-82
2022/09/08 06:35:36;;;;;;;;;2.33;2.33;;;;;18.58;66.62;100617.50;5000201;28;47990;-82
2022/09/08 06:38:09;;;;;;;;;5.00;4.67;;;;;18.61;66.36;100618.28;4999969;28;45465;-83
2022/09/08 06:40:49;;;;;;;;;5.00;3.00;;;;;18.67;66.04;100623.38;5007073;28;45249;-82
2022/09/08 06:43:22;;;;;;;;;2.00;2.00;;;;;18.68;65.91;100616.22;5019742;28;45448;-82
2022/09/08 06:45:53;;;;;;;;;3.33;3.33;;;;;18.76;66.37;100614.16;5019490;28;47464;-82
2022/09/08 06:48:29;;;;;;;;;3.00;3.00;;;;;18.77;65.93;100605.25;5020425;28;45356;-82
2022/09/08 06:51:21;;;;;;;;;5.00;5.00;;;;;18.84;66.11;100611.19;5019556;28;45423;-82
2022/09/08 06:54:08;;;;;;;;;6.67;4.67;;;;;18.89;65.66;100617.22;4998516;28;45437;-82
2022/09/08 06:56:52;;;;;;;;;4.00;2.00;;;;;18.91;65.47;100621.56;5019940;28;45634;-82
2022/09/08 06:59:58;;;;;;;;;6.33;5.00;;;;;18.94;65.62;100621.44;5019279;28;45422;-82
2022/09/08 07:02:42;;;;;;;;;2.33;2.00;;;;;18.95;65.07;100620.53;5020801;28;45255;-82
2022/09/08 07:05:48;;;;;;;;;3.67;2.67;;;;;19.01;65.47;100629.22;5020545;28;45430;-82
2022/09/08 07:08:19;;;;;;;;;4.25;4.25;;;;;19.08;64.93;100631.53;5018991;28;46209;-82
2022/09/08 07:10:57;;;;;;;;;7.33;6.00;;;;;19.14;65.22;100623.31;5018760;28;45367;-82
2022/09/08 07:13:57;;;;;;;;;6.67;4.00;;;;;19.17;64.55;100619.63;5020389;28;45500;-82
2022/09/08 07:16:36;;;;;;;;;5.33;4.33;;;;;19.21;64.71;100628.38;4997086;28;46152;-82
2022/09/08 07:19:16;;;;;;;;;3.33;3.00;;;;;19.21;64.38;100625.72;5019830;28;46111;-82
2022/09/08 07:22:17;;;;;;;;;3.00;3.00;;;;;19.26;64.74;100621.06;5018899;28;45264;-82
2022/09/08 07:24:45;;;;;;;;;6.00;4.00;;;;;19.27;64.85;100620.09;5008035;28;45467;-82
2022/09/08 07:27:12;;;;;;;;;3.33;3.33;;;;;19.30;64.81;100615.53;5018641;28;45544;-82
2022/09/08 07:29:50;;;;;;;;;8.00;4.67;;;;;19.41;64.11;100623.09;5018574;28;47072;-82
2022/09/08 07:32:35;;;;;;;;;4.33;2.67;;;;;19.43;64.27;100612.31;5019558;28;45516;-82
2022/09/08 07:35:22;;;;;;;;;6.00;4.00;;;;;19.52;63.97;100610.13;5018476;28;45541;-82
2022/09/08 07:37:51;;;;;;;;;7.33;4.00;;;;;19.57;63.92;100604.59;5018624;28;45463;-82
2022/09/08 07:40:21;;;;;;;;;3.00;2.00;;;;;19.66;64.02;100608.66;5018405;28;46367;-82
2022/09/08 07:42:50;;;;;;;;;4.33;3.67;;;;;19.74;63.92;100612.78;5018357;28;45501;-83
2022/09/08 07:45:16;;;;;;;;;3.67;3.00;;;;;19.79;63.28;100615.25;5018603;28;45457;-82
2022/09/08 07:47:49;;;;;;;;;3.33;3.33;;;;;19.82;63.10;100623.97;5018013;28;45526;-82
2022/09/08 07:50:55;;;;;;;;;4.00;3.00;;;;;19.80;63.03;100622.31;5018398;28;47230;-83
2022/09/08 07:53:35;;;;;;;;;2.00;2.00;;;;;19.82;62.97;100621.31;5018219;28;45278;-82
2022/09/08 07:56:32;;;;;;;;;3.33;3.00;;;;;19.88;63.33;100627.31;5018820;28;45531;-82
2022/09/08 07:59:34;;;;;;;;;6.00;5.33;;;;;19.99;63.00;100633.06;5019482;28;45473;-82
2022/09/08 08:02:21;;;;;;;;;3.67;3.00;;;;;20.01;62.40;100636.53;5017916;28;47130;-82
2022/09/08 08:05:14;;;;;;;;;4.00;4.00;;;;;19.98;62.08;100632.19;5019165;28;45425;-82
2022/09/08 08:08:20;;;;;;;;;3.67;3.67;;;;;19.95;62.31;100636.81;5019437;28;45501;-82
2022/09/08 08:11:00;;;;;;;;;6.67;5.67;;;;;19.91;61.75;100627.19;5006585;28;45903;-82
2022/09/08 08:13:44;;;;;;;;;2.00;2.00;;;;;19.93;62.05;100631.53;5019324;28;45296;-82
2022/09/08 08:16:15;;;;;;;;;4.67;4.67;;;;;19.87;61.55;100625.59;5017435;28;45252;-82
2022/09/08 08:18:50;;;;;;;;;5.67;4.00;;;;;19.84;61.97;100631.94;5018967;28;45532;-82
2022/09/08 08:21:34;;;;;;;;;7.00;4.33;;;;;19.82;61.70;100632.00;5017899;28;45852;-82
2022/09/08 08:24:40;;;;;;;;;5.00;5.00;;;;;19.85;61.34;100633.66;5017743;28;47364;-82
2022/09/08 08:27:23;;;;;;;;;2.33;2.33;;;;;19.90;61.55;100638.81;5017345;28;45491;-82
2022/09/08 08:30:00;;;;;;;;;4.00;4.00;;;;;19.91;61.38;100641.41;5017900;28;45638;-82
2022/09/08 08:32:37;;;;;;;;;6.00;3.00;;;;;19.93;61.28;100639.53;5017602;28;45485;-82
2022/09/08 08:35:40;;;;;;;;;2.33;1.00;;;;;20.01;60.97;100650.75;5017726;28;48655;-82
2022/09/08 08:38:11;;;;;;;;;5.33;3.67;;;;;19.95;60.86;100643.03;5012560;28;45345;-82
2022/09/08 08:40:53;;;;;;;;;5.33;3.33;;;;;19.92;60.98;100648.50;5021299;28;45260;-82
2022/09/08 08:43:27;;;;;;;;;1.00;1.00;;;;;19.87;60.71;100639.81;5021118;28;45628;-82
2022/09/08 08:46:23;;;;;;;;;4.67;4.00;;;;;19.85;60.99;100641.69;5022561;28;46030;-82
2022/09/08 08:49:21;;;;;;;;;4.67;4.67;;;;;19.81;60.71;100643.63;5009119;28;45417;-82
2022/09/08 08:51:56;;;;;;;;;2.33;2.33;;;;;19.74;60.78;100641.28;5005882;28;45308;-82
2022/09/08 08:54:40;;;;;;;;;5.67;4.00;;;;;19.78;60.88;100649.13;5013794;28;45250;-82
2022/09/08 08:57:24;;;;;;;;;4.00;4.00;;;;;19.86;60.67;100659.47;5013025;28;45534;-81
2022/09/08 09:00:04;;;;;;;;;0.00;0.00;;;;;19.94;61.16;100657.34;5003404;28;45230;-82
2022/09/08 09:03:35;;;;;;;;;6.00;4.00;;;;;20.02;60.46;100654.28;5004036;28;45430;-81
2022/09/08 09:06:10;;;;;;;;;4.67;4.00;;;;;20.11;60.41;100650.38;5012336;28;45394;-82
2022/09/08 09:08:52;;;;;;;;;5.33;4.33;;;;;20.15;60.32;100646.59;5002948;28;47106;-82
2022/09/08 09:11:30;;;;;;;;;3.00;3.00;;;;;20.12;60.67;100649.41;5013744;28;46398;-82
2022/09/08 09:14:15;;;;;;;;;5.33;4.67;;;;;20.13;60.74;100648.47;5020206;28;45372;-82
2022/09/08 09:16:46;;;;;;;;;3.50;2.75;;;;;20.05;60.03;100664.88;5000819;28;45317;-82
2022/09/08 09:19:27;;;;;;;;;3.67;3.67;;;;;19.99;60.75;100659.78;5000495;28;47155;-82
2022/09/08 09:22:15;;;;;;;;;4.00;4.00;;;;;19.98;60.54;100663.41;5000445;28;45273;-82
2022/09/08 09:25:14;;;;;;;;;5.33;2.67;;;;;19.97;60.42;100672.38;5009201;28;45379;-82
2022/09/08 09:27:46;;;;;;;;;4.00;4.00;;;;;19.94;60.55;100668.03;5022016;28;45183;-81
2022/09/08 09:30:14;;;;;;;;;4.67;3.33;;;;;19.94;60.56;100677.81;5023125;28;46576;-81
2022/09/08 09:33:11;;;;;;;;;5.33;3.67;;;;;19.93;60.78;100668.06;5020050;28;45348;-81
2022/09/08 09:35:36;;;;;;;;;4.00;3.33;;;;;19.98;60.89;100674.94;5020982;28;45426;-81
2022/09/08 09:38:22;;;;;;;;;5.00;4.00;;;;;20.03;60.89;100672.09;5022569;28;45213;-82
2022/09/08 09:41:13;;;;;;;;;3.00;3.00;;;;;20.16;61.36;100669.75;5021068;28;47481;-82
2022/09/08 09:44:07;;;;;;;;;5.00;4.33;;;;;20.34;61.13;100660.91;5020864;28;45458;-83
2022/09/08 09:46:52;;;;;;;;;4.33;3.00;;;;;20.51;60.14;100664.59;5022307;28;45540;-82
2022/09/08 09:49:42;;;;;;;;;7.33;4.00;;;;;20.59;60.26;100666.00;5021776;28;45510;-82
2022/09/08 09:52:19;;;;;;;;;3.00;3.00;;;;;20.74;59.91;100651.00;5022276;28;45887;-82
2022/09/08 09:55:06;;;;;;;;;3.67;2.67;;;;;20.93;59.84;100651.03;5022118;28;45503;-82
2022/09/08 09:57:38;;;;;;;;;3.33;3.33;;;;;21.19;59.09;100647.06;5020721;28;45414;-82
2022/09/08 10:00:17;;;;;;;;;3.33;3.00;;;;;21.39;59.03;100645.25;5021777;28;45324;-82
2022/09/08 10:03:04;;;;;;;;;3.33;2.67;;;;;21.45;58.33;100651.16;5019773;28;48146;-82
2022/09/08 10:05:57;;;;;;;;;4.00;3.00;;;;;21.49;57.57;100650.06;5022626;28;45320;-81
2022/09/08 10:08:28;;;;;;;;;4.00;3.67;;;;;21.52;57.46;100639.19;5022615;28;45446;-82
2022/09/08 10:11:27;;;;;;;;;3.33;2.00;;;;;21.54;57.40;100642.66;5022443;28;45256;-81
2022/09/08 10:14:21;;;;;;;;;5.67;2.33;;;;;21.52;57.06;100643.69;5021736;28;47160;-81
2022/09/08 10:17:31;;;;;;;;;3.33;2.67;;;;;21.44;57.52;100636.03;5021279;28;45373;-81
2022/09/08 10:20:33;;;;;;;;;2.67;1.00;;;;;21.52;57.66;100635.66;5021568;28;45469;-82
2022/09/08 10:23:19;;;;;;;;;2.33;2.33;;;;;21.61;57.88;100643.19;5022704;28;45315;-82
2022/09/08 10:26:03;;;;;;;;;2.67;2.67;;;;;21.59;57.03;100629.00;5021930;28;46680;-83
2022/09/08 10:28:48;;;;;;;;;2.00;2.00;;;;;21.53;56.91;100622.16;5021271;28;45342;-82
2022/09/08 10:31:13;;;;;;;;;2.33;2.33;;;;;21.54;57.05;100628.38;5011692;28;45359;-82
2022/09/08 10:34:13;;;;;;;;;1.33;1.33;;;;;21.50;56.63;100632.19;4999968;28;45392;-81
2022/09/08 10:36:52;;;;;;;;;2.00;2.00;;;;;21.49;56.51;100628.63;5001157;28;46505;-82
2022/09/08 10:39:36;;;;;;;;;1.67;1.67;;;;;21.47;56.16;100619.81;5001145;28;45546;-82
2022/09/08 10:42:01;;;;;;;;;2.00;1.00;;;;;21.53;56.65;100627.50;4999576;28;45458;-82
2022/09/08 10:44:45;;;;;;;;;1.67;1.67;;;;;21.60;56.25;100630.75;4999743;28;45438;-82
2022/09/08 10:47:38;;;;;;;;;2.00;2.00;;;;;21.63;55.97;100627.94;5007826;28;47372;-83
2022/09/08 10:50:21;;;;;;;;;4.33;2.00;;;;;21.72;56.37;100634.63;5019227;28;45422;-81
2022/09/08 10:53:03;;;;;;;;;2.00;1.00;;;;;21.84;56.12;100623.25;5020935;28;45248;-84
2022/09/08 10:56:17;;;;;;;;;3.67;3.00;;;;;21.98;55.91;100618.03;5019806;28;45413;-81
2022/09/08 10:59:19;;;;;;;;;3.00;3.00;;;;;22.05;56.04;100618.56;5009906;28;45464;-81
2022/09/08 11:02:07;;;;;;;;;4.00;2.67;;;;;22.05;55.86;100612.31;5005763;28;45582;-81
2022/09/08 11:05:14;;;;;;;;;2.00;2.00;;;;;22.07;55.50;100621.16;5018952;28;45288;-82
2022/09/08 11:07:51;;;;;;;;;1.67;1.67;;;;;22.05;55.53;100613.19;5020450;28;45562;-82
2022/09/08 11:10:43;;;;;;;;;3.33;1.00;;;;;22.11;55.03;100614.69;5018801;28;48104;-82
2022/09/08 11:13:29;;;;;;;;;3.33;2.00;;;;;22.19;55.18;100613.38;5020356;28;45417;-82
2022/09/08 11:16:25;;;;;;;;;2.00;2.00;;;;;22.42;54.90;100605.84;5019990;28;45249;-82
2022/09/08 11:19:06;;;;;;;;;1.00;1.00;;;;;22.75;54.48;100604.91;5018363;28;45272;-81
2022/09/08 11:21:47;;;;;;;;;2.00;1.00;;;;;22.98;53.39;100615.25;5018590;28;46110;-82
2022/09/08 11:24:30;;;;;;;;;2.00;1.67;;;;;23.17;52.75;100604.31;5018592;28;45310;-82
2022/09/08 11:27:34;;;;;;;;;2.67;0.67;;;;;23.45;52.52;100610.75;5020850;28;45220;-83
2022/09/08 11:30:20;;;;;;;;;3.00;2.00;;;;;23.82;51.37;100616.59;5020129;28;45585;-81
2022/09/08 11:33:07;;;;;;;;;2.33;1.67;;;;;24.06;51.05;100617.81;5017910;28;47007;-81
2022/09/08 11:35:42;;;;;;;;;0.33;0.00;;;;;24.27;49.88;100612.03;5018753;28;45284;-82
2022/09/08 11:38:30;;;;;;;;;0.00;0.00;;;;;24.37;49.52;100610.47;5019810;28;45494;-81
2022/09/08 11:41:07;;;;;;;;;3.00;3.00;;;;;24.43;49.00;100610.97;5018764;28;45494;-82
2022/09/08 11:43:58;;;;;;;;;0.33;0.33;;;;;24.51;48.52;100610.53;5017881;28;46946;-82
2022/09/08 11:46:23;;;;;;;;;1.33;1.00;;;;;24.61;48.11;100618.84;5019129;28;45505;-82
2022/09/08 11:48:55;;;;;;;;;1.67;1.67;;;;;24.68;47.16;100614.81;5018202;28;45197;-82
2022/09/08 11:51:42;;;;;;;;;3.00;1.00;;;;;24.85;46.59;100603.78;5019390;28;45235;-82
2022/09/08 11:54:36;;;;;;;;;1.00;1.00;;;;;25.02;46.06;100591.03;5019346;28;45678;-82
2022/09/08 11:57:13;;;;;;;;;1.00;1.00;;;;;25.15;45.45;100601.84;5019767;28;45173;-82
2022/09/08 11:59:42;;;;;;;;;1.00;1.00;;;;;25.17;45.80;100599.97;5018616;28;45395;-82
2022/09/08 12:02:27;;;;;;;;;2.00;2.00;;;;;25.12;45.27;100593.97;5018212;28;45546;-82
2022/09/08 12:05:23;;;;;;;;;1.00;1.00;;;;;25.19;45.44;100598.03;5018191;28;47417;-82
2022/09/08 12:07:58;;;;;;;;;2.00;2.00;;;;;25.33;45.17;100600.66;5019246;28;45461;-81